Time;durP1;ratioP1;P1;durP2;ratioP2;P2;SDS_P1;SDS_P2;PMS_P1;PMS_P2;Temp;Humidity;BMP_temperature;BMP_pressure;BME280_temperature;BME280_humidity;BME280_pressure;Samples;Min_cycle;Max_cycle;Signal;HPM_P1;HPM_P2
2023/07/09 00:00:03;;;;;;;4.70;2.72;;;;;;;22.88;100.00;97662.09;5070224;28;20411;-74
2023/07/09 00:02:30;;;;;;;3.78;2.72;;;;;;;22.86;100.00;97663.53;5069939;28;20399;-74
2023/07/09 00:04:56;;;;;;;3.22;2.65;;;;;;;22.83;100.00;97664.97;5070032;28;20407;-74
2023/07/09 00:07:27;;;;;;;5.30;3.10;;;;;;;22.82;100.00;97666.09;5073016;28;20819;-74
2023/07/09 00:09:54;;;;;;;4.80;3.50;;;;;;;22.78;100.00;97673.22;5074351;28;20506;-74
2023/07/09 00:12:21;;;;;;;5.00;2.85;;;;;;;22.74;100.00;97675.00;5074126;28;20473;-74
2023/07/09 00:14:47;;;;;;;5.50;3.13;;;;;;;22.69;100.00;97667.06;5074035;28;20835;-74
2023/07/09 00:17:21;;;;;;;3.90;2.60;;;;;;;22.66;100.00;97665.00;5073965;28;20408;-74
2023/07/09 00:19:49;;;;;;;4.88;3.22;;;;;;;22.63;100.00;97666.41;5074074;28;20502;-74
2023/07/09 00:22:17;;;;;;;3.70;2.67;;;;;;;22.62;100.00;97674.88;5073984;28;20396;-74
2023/07/09 00:24:44;;;;;;;4.30;2.90;;;;;;;22.60;100.00;97671.69;5055826;28;20769;-74
2023/07/09 00:27:11;;;;;;;6.72;3.33;;;;;;;22.59;100.00;97667.41;5073781;28;20403;-74
2023/07/09 00:29:37;;;;;;;3.97;2.97;;;;;;;22.57;100.00;97665.00;5074028;28;20418;-74
2023/07/09 00:32:08;;;;;;;6.18;3.17;;;;;;;22.55;100.00;97669.16;5073635;28;20455;-74
2023/07/09 00:34:34;;;;;;;5.05;3.03;;;;;;;22.49;100.00;97668.53;5073541;28;20403;-74
2023/07/09 00:37:02;;;;;;;5.53;3.25;;;;;;;22.43;100.00;97669.81;5073915;28;20901;-74
2023/07/09 00:39:28;;;;;;;7.85;4.20;;;;;;;22.36;100.00;97672.22;5073648;28;20403;-74
2023/07/09 00:41:54;;;;;;;4.32;3.08;;;;;;;22.30;100.00;97681.59;5055706;28;20399;-74
2023/07/09 00:44:28;;;;;;;4.10;2.83;;;;;;;22.26;100.00;97675.22;5073435;28;20427;-74
2023/07/09 00:47:28;;;;;;;3.88;3.08;;;;;;;22.26;100.00;97678.72;5073544;28;20461;-74
2023/07/09 00:50:03;;;;;;;5.97;3.25;;;;;;;22.27;100.00;97683.00;5073567;28;20396;-74
2023/07/09 00:52:37;;;;;;;7.90;3.25;;;;;;;22.25;100.00;97682.53;5073309;28;20748;-74
2023/07/09 00:55:09;;;;;;;4.47;3.25;;;;;;;22.23;100.00;97682.06;5073329;28;20399;-74
2023/07/09 00:57:38;;;;;;;4.88;3.05;;;;;;;22.21;100.00;97680.81;5073441;28;20398;-74
2023/07/09 01:00:09;;;;;;;5.15;3.17;;;;;;;22.19;100.00;97683.00;5073370;28;20812;-74
2023/07/09 01:02:35;;;;;;;4.70;2.93;;;;;;;22.16;100.00;97681.75;5065058;28;20418;-74
2023/07/09 01:05:03;;;;;;;4.80;2.83;;;;;;;22.15;100.00;97682.06;5073065;28;20407;-74
2023/07/09 01:07:30;;;;;;;5.17;2.87;;;;;;;22.11;100.00;97681.91;5073060;28;20400;-74
2023/07/09 01:09:57;;;;;;;3.55;2.60;;;;;;;22.10;100.00;97690.34;5073274;28;20873;-74
2023/07/09 01:12:25;;;;;;;3.45;2.60;;;;;;;22.09;100.00;97691.44;5072832;28;20423;-74
2023/07/09 01:14:58;;;;;;;5.45;3.20;;;;;;;22.05;100.00;97682.38;5073007;28;20593;-75
2023/07/09 01:17:27;;;;;;;5.07;3.08;;;;;;;22.01;100.00;97690.34;5072926;28;20434;-75
2023/07/09 01:19:55;;;;;;;5.72;3.30;;;;;;;21.96;100.00;97688.56;5073066;28;20485;-75
2023/07/09 01:22:23;;;;;;;4.47;3.27;;;;;;;21.93;100.00;97693.78;5072830;28;20433;-75
2023/07/09 01:24:53;;;;;;;4.22;2.90;;;;;;;21.89;100.00;97696.31;5072866;28;20403;-75
2023/07/09 01:27:23;;;;;;;3.42;2.53;;;;;;;21.87;100.00;97695.06;5072746;28;21003;-75
2023/07/09 01:29:50;;;;;;;4.10;2.88;;;;;;;21.84;100.00;97684.91;5072855;28;20403;-74
2023/07/09 01:32:21;;;;;;;6.93;3.53;;;;;;;21.84;100.00;97695.69;5054474;28;20796;-74
2023/07/09 01:34:49;;;;;;;7.45;3.88;;;;;;;21.80;100.00;97684.72;5059072;28;20488;-75
2023/07/09 01:37:17;;;;;;;5.15;2.92;;;;;;;21.76;100.00;97677.59;5052459;28;20408;-74
2023/07/09 01:39:45;;;;;;;5.60;3.60;;;;;;;21.71;100.00;97678.56;5052694;28;20397;-75
2023/07/09 01:42:12;;;;;;;4.40;3.22;;;;;;;21.68;100.00;97684.56;5052355;28;20743;-74
2023/07/09 01:44:40;;;;;;;4.63;3.30;;;;;;;21.67;100.00;97685.66;5052348;28;20401;-75
2023/07/09 01:47:06;;;;;;;5.65;3.35;;;;;;;21.65;100.00;97681.72;5052498;28;20397;-75
2023/07/09 01:49:33;;;;;;;5.60;3.60;;;;;;;21.63;100.00;97682.03;5052444;28;20903;-74
2023/07/09 01:52:00;;;;;;;5.72;3.38;;;;;;;21.57;100.00;97680.59;5067269;28;20415;-74
2023/07/09 01:54:28;;;;;;;4.53;3.30;;;;;;;21.51;100.00;97679.16;5072238;28;20960;-75
2023/07/09 01:57:12;;;;;;;5.82;3.42;;;;;;;21.49;100.00;97684.06;5072415;28;20745;-75
2023/07/09 01:59:41;;;;;;;5.40;3.10;;;;;;;21.46;100.00;97687.38;5072329;28;20399;-75
2023/07/09 02:02:07;;;;;;;4.60;3.40;;;;;;;21.45;100.00;97686.59;5072103;28;20449;-75
2023/07/09 02:04:33;;;;;;;4.70;3.35;;;;;;;21.43;100.00;97688.00;5052047;28;20409;-74
2023/07/09 02:06:59;;;;;;;6.25;3.35;;;;;;;21.42;100.00;97691.81;5052083;28;20402;-74
2023/07/09 02:09:26;;;;;;;6.35;3.60;;;;;;;21.41;100.00;97691.03;5052093;28;20401;-74
2023/07/09 02:11:52;;;;;;;5.28;3.38;;;;;;;21.41;100.00;97690.25;5051811;28;20429;-74
2023/07/09 02:14:19;;;;;;;4.30;2.75;;;;;;;21.42;100.00;97687.25;5061117;28;20808;-75
2023/07/09 02:16:46;;;;;;;5.13;3.25;;;;;;;21.41;100.00;97690.25;5072028;28;20431;-73
2023/07/09 02:19:12;;;;;;;4.82;3.15;;;;;;;21.37;100.00;97687.38;5071727;28;20747;-74
2023/07/09 02:21:38;;;;;;;8.27;4.10;;;;;;;21.33;100.00;97683.72;5071659;28;20449;-74
2023/07/09 02:24:05;;;;;;;5.32;3.55;;;;;;;21.27;100.00;97684.97;5071584;28;20998;-74
2023/07/09 02:26:31;;;;;;;5.13;3.20;;;;;;;21.23;100.00;97686.69;5071299;28;20414;-74
2023/07/09 02:28:57;;;;;;;7.72;3.35;;;;;;;21.19;100.00;97697.31;5071007;28;20793;-74
2023/07/09 02:31:25;;;;;;;4.78;3.13;;;;;;;21.18;100.00;97687.66;5071297;28;20415;-74
2023/07/09 02:33:51;;;;;;;6.00;3.70;;;;;;;21.16;100.00;97687.16;5071280;28;20769;-74
2023/07/09 02:36:17;;;;;;;6.72;3.80;;;;;;;21.14;100.00;97694.72;5071233;28;20399;-74
2023/07/09 02:38:43;;;;;;;6.30;3.38;;;;;;;21.10;100.00;97701.84;5071452;28;20403;-74
2023/07/09 02:41:09;;;;;;;6.68;3.75;;;;;;;21.07;100.00;97697.06;5053544;28;20495;-74
2023/07/09 02:43:36;;;;;;;5.80;3.50;;;;;;;21.03;100.00;97692.63;5053096;28;20953;-74
2023/07/09 02:46:02;;;;;;;6.03;3.72;;;;;;;21.01;100.00;97698.31;5071194;28;20464;-74
2023/07/09 02:48:30;;;;;;;6.07;3.90;;;;;;;21.02;100.00;97696.41;5071093;28;20423;-74
2023/07/09 02:50:56;;;;;;;6.65;3.92;;;;;;;21.00;100.00;97704.78;5078320;28;20415;-74
2023/07/09 02:53:22;;;;;;;6.60;3.90;;;;;;;20.99;100.00;97702.41;5086445;28;20737;-74
2023/07/09 02:55:48;;;;;;;5.78;3.13;;;;;;;20.99;100.00;97697.81;5075975;28;20484;-74
2023/07/09 02:58:15;;;;;;;4.47;3.05;;;;;;;21.00;100.00;97704.78;5081750;28;20761;-74
2023/07/09 03:00:41;;;;;;;4.68;3.20;;;;;;;21.01;100.00;97706.38;5078403;28;20403;-74
2023/07/09 03:03:07;;;;;;;8.13;4.10;;;;;;;21.01;100.00;97708.28;5078217;28;20402;-75
2023/07/09 03:05:35;;;;;;;5.57;3.05;;;;;;;20.98;100.00;97708.88;5078859;28;20470;-74
2023/07/09 03:08:01;;;;;;;6.07;3.75;;;;;;;20.94;100.00;97716.81;5071082;28;20403;-74
2023/07/09 03:10:28;;;;;;;4.35;3.25;;;;;;;20.90;100.00;97721.19;5080643;28;20773;-74
2023/07/09 03:12:55;;;;;;;8.53;3.47;;;;;;;20.86;100.00;97714.88;5081620;28;20468;-74
2023/07/09 03:15:21;;;;;;;7.65;3.60;;;;;;;20.84;100.00;97709.78;5081228;28;20777;-74
2023/07/09 03:17:47;;;;;;;12.02;3.90;;;;;;;20.81;100.00;97717.69;5085073;28;20407;-74
2023/07/09 03:20:13;;;;;;;7.20;3.88;;;;;;;20.77;100.00;97708.63;5070682;28;20824;-74
2023/07/09 03:22:41;;;;;;;5.60;3.50;;;;;;;20.74;100.00;97711.97;5081206;28;20398;-74
2023/07/09 03:25:07;;;;;;;5.38;3.33;;;;;;;20.72;100.00;97712.25;5081687;28;20396;-74
2023/07/09 03:27:33;;;;;;;4.07;2.90;;;;;;;20.73;100.00;97713.06;5085673;28;20490;-74
2023/07/09 03:30:00;;;;;;;6.20;3.58;;;;;;;20.73;100.00;97715.75;5078006;28;20403;-74
2023/07/09 03:32:26;;;;;;;8.75;3.45;;;;;;;20.72;100.00;97714.94;5079013;28;20842;-74
2023/07/09 03:34:53;;;;;;;8.82;3.92;;;;;;;20.70;100.00;97713.66;5076258;28;20403;-74
2023/07/09 03:37:19;;;;;;;5.37;3.13;;;;;;;20.70;100.00;97719.03;5078212;28;20816;-74
2023/07/09 03:39:47;;;;;;;5.20;3.55;;;;;;;20.68;100.00;97708.59;5084583;28;20403;-74
2023/07/09 03:42:13;;;;;;;7.93;3.60;;;;;;;20.66;100.00;97715.41;5076770;28;20501;-74
2023/07/09 03:44:40;;;;;;;5.13;3.60;;;;;;;20.63;100.00;97706.03;5055329;28;20962;-74
2023/07/09 03:47:07;;;;;;;10.20;3.67;;;;;;;20.61;100.00;97719.00;5081078;28;20760;-74
2023/07/09 03:49:33;;;;;;;5.90;3.85;;;;;;;20.59;100.00;97717.72;5084937;28;20470;-74
2023/07/09 03:52:00;;;;;;;6.10;4.13;;;;;;;20.57;100.00;97717.22;5070097;28;20948;-74
2023/07/09 03:54:26;;;;;;;6.60;3.70;;;;;;;20.56;100.00;97719.13;5069991;28;20908;-74
2023/07/09 03:56:53;;;;;;;5.32;3.75;;;;;;;20.55;100.00;97720.22;5070234;28;20409;-74
2023/07/09 03:59:20;;;;;;;7.60;4.10;;;;;;;20.51;100.00;97723.84;5070085;28;20490;-74
2023/07/09 04:01:46;;;;;;;5.07;3.73;;;;;;;20.47;100.00;97724.44;5070157;28;20400;-74
2023/07/09 04:04:12;;;;;;;6.25;4.10;;;;;;;20.46;100.00;97730.13;5070000;28;20399;-74
2023/07/09 04:06:38;;;;;;;3.97;3.25;;;;;;;20.46;100.00;97738.19;5070253;28;20396;-74
2023/07/09 04:09:05;;;;;;;4.60;3.27;;;;;;;20.50;100.00;97735.69;5070163;28;20461;-74
2023/07/09 04:11:31;;;;;;;7.00;3.83;;;;;;;20.51;100.00;97727.34;5069887;28;20852;-74
2023/07/09 04:13:58;;;;;;;5.85;4.20;;;;;;;20.52;100.00;97728.13;5069962;28;20410;-74
2023/07/09 04:16:25;;;;;;;6.30;4.30;;;;;;;20.53;100.00;97735.06;5069924;28;20427;-74
2023/07/09 04:18:51;;;;;;;4.82;3.40;;;;;;;20.54;100.00;97737.47;5070225;28;20461;-74
2023/07/09 04:21:17;;;;;;;5.53;3.87;;;;;;;20.56;100.00;97735.25;5069018;28;20429;-74
2023/07/09 04:23:43;;;;;;;4.63;3.60;;;;;;;20.58;100.00;97734.97;5049617;28;20409;-74
2023/07/09 04:26:13;;;;;;;6.75;4.25;;;;;;;20.62;100.00;97733.25;5049862;28;20409;-74
2023/07/09 04:28:40;;;;;;;6.72;4.18;;;;;;;20.63;100.00;97727.56;5062312;28;20392;-74
2023/07/09 04:31:08;;;;;;;7.90;3.83;;;;;;;20.65;100.00;97728.06;5069884;28;20416;-74
2023/07/09 04:33:35;;;;;;;6.15;4.25;;;;;;;20.68;100.00;97726.63;5049598;28;20464;-74
2023/07/09 04:36:02;;;;;;;7.30;4.00;;;;;;;20.71;100.00;97728.72;5049912;28;20428;-74
2023/07/09 04:38:28;;;;;;;5.90;4.30;;;;;;;20.75;100.00;97733.16;5049643;28;20409;-74
2023/07/09 04:40:55;;;;;;;4.40;3.53;;;;;;;20.82;100.00;97735.44;5049800;28;20488;-74
2023/07/09 04:43:21;;;;;;;4.47;3.35;;;;;;;20.90;100.00;97733.88;5049378;28;20397;-74
2023/07/09 04:45:48;;;;;;;4.90;3.47;;;;;;;20.97;100.00;97739.63;5049656;28;20455;-74
2023/07/09 04:48:15;;;;;;;6.95;4.00;;;;;;;21.03;100.00;97738.38;5049709;28;20401;-74
2023/07/09 04:50:41;;;;;;;4.70;3.60;;;;;;;21.08;100.00;97733.66;5054305;28;20400;-74
2023/07/09 04:53:07;;;;;;;4.90;3.53;;;;;;;21.15;100.00;97735.88;5071642;28;20414;-74
2023/07/09 04:55:34;;;;;;;4.50;3.47;;;;;;;21.22;100.00;97741.66;5073375;28;20410;-74
2023/07/09 04:58:00;;;;;;;4.53;2.90;;;;;;;21.31;100.00;97741.69;5073396;28;20403;-74
2023/07/09 05:00:26;;;;;;;3.40;2.80;;;;;;;21.41;100.00;97738.72;5073196;28;20907;-74
2023/07/09 05:02:52;;;;;;;4.55;2.80;;;;;;;21.51;100.00;97747.28;5073100;28;20395;-74
2023/07/09 05:05:20;;;;;;;5.05;3.08;;;;;;;21.61;100.00;97748.91;5073195;28;20467;-74
2023/07/09 05:07:47;;;;;;;3.47;2.80;;;;;;;21.71;100.00;97747.81;5073201;28;20404;-74
2023/07/09 05:10:13;;;;;;;3.58;2.78;;;;;;;21.81;100.00;97751.00;5073217;28;20807;-74
2023/07/09 05:12:48;;;;;;;4.13;2.85;;;;;;;21.90;100.00;97751.81;5073058;28;20411;-72
2023/07/09 05:15:15;;;;;;;3.75;2.90;;;;;;;21.99;100.00;97757.25;5055720;28;20394;-75
2023/07/09 05:17:41;;;;;;;3.10;2.35;;;;;;;22.08;100.00;97751.88;5053174;28;20397;-74
2023/07/09 05:20:08;;;;;;;3.43;2.63;;;;;;;22.14;100.00;97754.09;5069323;28;20474;-74
2023/07/09 05:22:36;;;;;;;3.50;2.72;;;;;;;22.21;100.00;97748.22;5072900;28;20400;-74
2023/07/09 05:25:02;;;;;;;5.32;2.60;;;;;;;22.29;100.00;97752.81;5072681;28;20418;-74
2023/07/09 05:27:28;;;;;;;5.10;3.03;;;;;;;22.35;100.00;97759.63;5073115;28;20407;-74
2023/07/09 05:29:54;;;;;;;6.15;2.67;;;;;;;22.42;100.00;97753.75;5073256;28;20407;-74
2023/07/09 05:32:20;;;;;;;4.82;2.70;;;;;;;22.48;100.00;97760.59;5072973;28;20419;-74
2023/07/09 05:34:47;;;;;;;4.38;3.00;;;;;;;22.51;100.00;97752.66;5073070;28;20396;-74
2023/07/09 05:37:13;;;;;;;3.77;2.67;;;;;;;22.58;100.00;97760.25;5073046;28;20406;-75
2023/07/09 05:39:41;;;;;;;4.72;2.70;;;;;;;22.63;100.00;97752.00;5073466;28;20836;-74
2023/07/09 05:42:07;;;;;;;3.23;2.53;;;;;;;22.66;100.00;97752.16;5073041;28;20410;-74
2023/07/09 05:44:34;;;;;;;5.37;2.90;;;;;;;22.70;100.00;97758.47;5072755;28;20482;-75
2023/07/09 05:47:00;;;;;;;3.90;3.20;;;;;;;22.76;100.00;97761.84;5073123;28;20398;-74
2023/07/09 05:49:26;;;;;;;5.05;3.03;;;;;;;22.81;100.00;97764.38;5072955;28;20523;-74
2023/07/09 05:51:52;;;;;;;3.78;2.80;;;;;;;22.84;100.00;97762.94;5072832;28;20506;-74
2023/07/09 05:54:18;;;;;;;6.13;3.50;;;;;;;22.88;100.00;97761.97;5072948;28;20934;-73
2023/07/09 05:56:46;;;;;;;3.70;3.15;;;;;;;22.93;100.00;97761.78;5072778;28;20407;-74
2023/07/09 05:59:12;;;;;;;5.88;3.33;;;;;;;22.99;100.00;97767.84;5072683;28;20431;-74
2023/07/09 06:01:38;;;;;;;4.13;3.33;;;;;;;23.02;100.00;97769.88;5072492;28;20395;-73
2023/07/09 06:04:06;;;;;;;4.83;3.23;;;;;;;23.07;100.00;97762.41;5071483;28;20878;-74
2023/07/09 06:06:32;;;;;;;3.70;2.95;;;;;;;23.11;100.00;97774.13;5072540;28;20403;-74
2023/07/09 06:08:58;;;;;;;4.55;3.10;;;;;;;23.13;100.00;97773.81;5072554;28;20436;-74
2023/07/09 06:11:24;;;;;;;9.07;4.65;;;;;;;;;;5071810;28;20500;-74
2023/07/09 06:13:52;;;;;;;7.38;4.45;;;;;;;23.23;100.00;97778.84;5072227;28;20453;-74
2023/07/09 06:16:18;;;;;;;5.47;4.18;;;;;;;23.28;100.00;97769.78;5071101;28;20406;-74
2023/07/09 06:18:44;;;;;;;6.22;3.90;;;;;;;23.33;100.00;97772.31;5060807;28;20410;-74
2023/07/09 06:21:12;;;;;;;5.15;3.92;;;;;;;23.42;100.00;97773.06;5071377;28;20404;-74
2023/07/09 06:23:38;;;;;;;9.07;4.47;;;;;;;23.52;100.00;97773.53;5070984;28;20427;-73
2023/07/09 06:26:05;;;;;;;8.30;5.00;;;;;;;23.73;100.00;97780.91;5071805;28;20461;-75
2023/07/09 06:28:31;;;;;;;8.30;4.25;;;;;;;23.70;100.00;97776.94;5072072;28;20411;-75
2023/07/09 06:30:59;;;;;;;6.37;4.20;;;;;;;23.79;100.00;97777.69;5070172;28;20432;-74
2023/07/09 06:33:27;;;;;;;6.03;4.10;;;;;;;23.88;100.00;97780.34;5070691;28;20473;-74
2023/07/09 06:35:55;;;;;;;5.47;3.67;;;;;;;23.93;100.00;97780.94;5071785;28;20727;-74
2023/07/09 06:38:22;;;;;;;5.93;4.03;;;;;;;23.98;100.00;97774.56;5071700;28;20438;-74
2023/07/09 06:40:50;;;;;;;5.65;4.07;;;;;;;24.04;100.00;97775.94;5071833;28;20396;-74
2023/07/09 06:43:16;;;;;;;7.45;4.30;;;;;;;24.12;100.00;97779.69;5071394;28;20388;-74
2023/07/09 06:45:49;;;;;;;6.53;4.07;;;;;;;24.29;100.00;97777.66;5071635;28;20388;-74
2023/07/09 06:48:17;;;;;;;8.57;4.72;;;;;;;24.35;96.59;97780.19;5071651;28;20400;-74
2023/07/09 06:50:43;;;;;;;8.38;3.90;;;;;;;24.43;100.00;97777.44;5071453;28;20396;-74
2023/07/09 06:53:10;;;;;;;6.77;4.13;;;;;;;24.46;98.17;97778.66;5068104;28;20412;-74
2023/07/09 06:55:36;;;;;;;8.00;4.20;;;;;;;24.69;87.56;97779.88;5071393;28;20482;-74
2023/07/09 06:58:02;;;;;;;8.73;4.25;;;;;;;24.68;88.93;97775.59;5071432;28;20396;-74
2023/07/09 07:00:28;;;;;;;7.30;4.00;;;;;;;24.77;91.24;97786.34;5071366;28;20449;-74
2023/07/09 07:02:54;;;;;;;7.63;4.10;;;;;;;24.85;84.05;97780.84;5074386;28;20398;-74
2023/07/09 07:05:22;;;;;;;6.70;4.10;;;;;;;24.87;87.80;97781.31;5073396;28;20396;-74
2023/07/09 07:07:48;;;;;;;4.90;3.50;;;;;;;24.88;94.32;97774.78;5071132;28;20909;-74
2023/07/09 07:10:14;;;;;;;7.28;3.72;;;;;;;24.99;93.63;97777.84;5070984;28;20399;-74
2023/07/09 07:12:43;;;;;;;7.50;3.53;;;;;;;24.97;94.01;97778.19;5071084;28;20982;-74
2023/07/09 07:15:11;;;;;;;6.40;3.60;;;;;;;25.02;95.17;97778.00;5071084;28;20403;-74
2023/07/09 07:17:37;;;;;;;4.87;3.57;;;;;;;25.05;96.43;97774.59;5067929;28;20400;-74
2023/07/09 07:20:04;;;;;;;4.82;3.67;;;;;;;25.07;98.36;97774.28;5071052;28;20404;-74
2023/07/09 07:22:33;;;;;;;4.78;3.13;;;;;;;25.13;100.00;97769.41;5070828;28;20395;-72
2023/07/09 07:24:59;;;;;;;5.47;3.35;;;;;;;25.20;96.67;97769.66;5070472;28;20457;-72
2023/07/09 07:27:25;;;;;;;4.88;3.05;;;;;;;25.30;100.00;97771.94;5070941;28;20462;-73
2023/07/09 07:29:52;;;;;;;8.50;3.70;;;;;;;25.39;85.66;97769.91;5070901;28;20403;-73
2023/07/09 07:32:18;;;;;;;5.57;3.63;;;;;;;25.37;87.38;97764.81;5070413;28;20427;-73
2023/07/09 07:34:45;;;;;;;4.75;3.08;;;;;;;25.40;93.98;97760.66;5070359;28;20400;-73
2023/07/09 07:37:12;;;;;;;3.95;2.80;;;;;;;25.42;99.19;97761.88;5070413;28;20396;-74
2023/07/09 07:39:40;;;;;;;3.15;2.40;;;;;;;25.46;100.00;97764.72;5070413;28;20404;-74
2023/07/09 07:42:06;;;;;;;4.18;2.75;;;;;;;25.48;100.00;97761.69;5070341;28;20418;-73
2023/07/09 07:44:33;;;;;;;2.58;2.28;;;;;;;25.51;100.00;97766.41;5070195;28;20412;-74
2023/07/09 07:46:59;;;;;;;3.80;2.65;;;;;;;25.54;100.00;97761.09;5070268;28;20408;-73
2023/07/09 07:49:26;;;;;;;4.25;2.55;;;;;;;25.57;100.00;97763.13;5070147;28;20435;-73
2023/07/09 07:51:52;;;;;;;3.22;2.25;;;;;;;25.63;100.00;97761.03;5069554;28;20492;-73
2023/07/09 07:54:19;;;;;;;3.55;2.70;;;;;;;25.67;100.00;97760.00;5069886;28;20405;-73
2023/07/09 07:56:46;;;;;;;5.55;3.22;;;;;;;25.72;100.00;97753.53;5070104;28;20438;-74
2023/07/09 07:59:14;;;;;;;4.35;2.90;;;;;;;25.79;100.00;97751.03;5070050;28;20400;-73
2023/07/09 08:01:40;;;;;;;5.57;3.22;;;;;;;25.85;100.00;97751.63;5070058;28;20419;-74
2023/07/09 08:04:06;;;;;;;4.00;2.75;;;;;;;25.91;100.00;97742.91;5052090;28;20886;-74
2023/07/09 08:06:33;;;;;;;4.05;2.88;;;;;;;25.98;100.00;97753.19;5050783;28;20463;-74
2023/07/09 08:08:59;;;;;;;4.03;3.00;;;;;;;26.05;100.00;97751.47;5065353;28;20487;-74
2023/07/09 08:11:27;;;;;;;3.53;2.60;;;;;;;26.11;100.00;97758.22;5069906;28;20495;-74
2023/07/09 08:13:55;;;;;;;3.42;2.65;;;;;;;26.19;100.00;97754.59;5070009;28;20400;-73
2023/07/09 08:16:21;;;;;;;2.95;2.60;;;;;;;26.28;100.00;97754.50;5070049;28;20403;-73
2023/07/09 08:18:47;;;;;;;3.72;2.88;;;;;;;26.35;100.00;97751.19;5070172;28;20421;-74
2023/07/09 08:21:14;;;;;;;4.05;2.72;;;;;;;26.43;100.00;97753.75;5068934;28;20942;-73
2023/07/09 08:23:40;;;;;;;3.90;2.80;;;;;;;26.53;100.00;97741.63;5068155;28;20407;-74
2023/07/09 08:26:06;;;;;;;4.05;2.83;;;;;;;26.62;100.00;97749.59;5066160;28;20404;-72
2023/07/09 08:28:34;;;;;;;3.50;2.83;;;;;;;26.69;100.00;97750.56;5072104;28;20403;-72
2023/07/09 08:31:02;;;;;;;2.85;2.22;;;;;;;26.79;100.00;97750.06;5070888;28;20418;-73
2023/07/09 08:33:28;;;;;;;3.35;2.42;;;;;;;26.86;100.00;97749.47;5073826;28;20419;-73
2023/07/09 08:35:54;;;;;;;4.95;3.30;;;;;;;27.03;100.00;97760.06;5073100;28;20482;-73
2023/07/09 08:38:21;;;;;;;9.43;4.85;;;;;;;26.85;84.64;97748.69;5071723;28;20453;-73
2023/07/09 08:40:58;;;;;;;6.38;4.00;;;;;;;27.03;94.42;97757.34;5073988;28;20400;-73
2023/07/09 08:43:36;;;;;;;5.57;3.42;;;;;;;27.18;99.05;97753.06;5073170;28;20404;-73
2023/07/09 08:46:15;;;;;;;5.22;2.97;;;;;;;27.30;100.00;97750.22;5073512;28;20758;-73
2023/07/09 08:48:45;;;;;;;3.42;2.63;;;;;;;27.41;100.00;97756.72;5069966;28;20491;-73
2023/07/09 08:51:17;;;;;;;4.63;2.90;;;;;;;27.50;100.00;97753.84;5068319;28;20407;-73
2023/07/09 08:53:48;;;;;;;3.67;2.58;;;;;;;27.56;100.00;97752.44;5051694;28;20405;-73
2023/07/09 08:56:17;;;;;;;3.50;2.78;;;;;;;27.61;100.00;97744.81;5055637;28;21149;-73
2023/07/09 08:58:45;;;;;;;3.67;2.80;;;;;;;27.69;100.00;97748.47;5072050;28;20396;-73
2023/07/09 09:01:20;;;;;;;2.95;2.40;;;;;;;27.76;100.00;97756.00;5064132;28;20752;-72
2023/07/09 09:03:51;;;;;;;3.10;2.67;;;;;;;27.85;100.00;97754.69;5067715;28;20483;-73
2023/07/09 09:06:21;;;;;;;3.25;2.60;;;;;;;27.92;100.00;97752.09;5063015;28;20400;-73
2023/07/09 09:08:55;;;;;;;4.30;2.58;;;;;;;28.04;100.00;97757.41;5063802;28;20399;-73
2023/07/09 09:11:30;;;;;;;2.97;2.33;;;;;;;28.17;100.00;97763.56;5064477;28;20401;-73
2023/07/09 09:14:01;;;;;;;3.85;2.90;;;;;;;28.25;99.59;97759.06;5063023;28;20770;-73
2023/07/09 09:16:32;;;;;;;3.75;2.67;;;;;;;28.37;99.81;97761.66;5073437;28;20801;-73
2023/07/09 09:19:00;;;;;;;5.07;3.75;;;;;;;28.45;91.19;97757.91;5080676;28;20727;-73
2023/07/09 09:21:31;;;;;;;5.53;3.42;;;;;;;28.52;92.53;97766.22;5072832;28;20400;-74
2023/07/09 09:24:08;;;;;;;6.07;3.38;;;;;;;28.60;93.22;97765.22;5072502;28;20435;-74
2023/07/09 09:26:36;;;;;;;3.88;2.80;;;;;;;28.71;93.82;97751.81;5071073;28;20395;-74
2023/07/09 09:29:11;;;;;;;5.28;3.20;;;;;;;28.76;92.13;97746.09;5072402;28;20403;-74
2023/07/09 09:31:40;;;;;;;4.03;2.95;;;;;;;28.86;92.19;97743.56;5072214;28;20424;-74
2023/07/09 09:34:18;;;;;;;4.78;3.05;;;;;;;28.97;91.97;97749.19;5072182;28;20892;-74
2023/07/09 09:36:44;;;;;;;2.42;2.22;;;;;;;29.13;90.69;97747.16;5071332;28;20495;-73
2023/07/09 09:39:11;;;;;;;4.28;3.25;;;;;;;29.16;84.50;97742.94;5068495;28;20435;-74
2023/07/09 09:41:38;;;;;;;5.05;3.55;;;;;;;29.21;85.91;97742.63;5072534;28;20509;-74
2023/07/09 09:44:05;;;;;;;6.85;4.15;;;;;;;29.17;75.84;97753.44;5071986;28;20395;-74
2023/07/09 09:46:32;;;;;;;6.60;4.03;;;;;;;29.22;65.15;97747.72;5072007;28;20969;-74
2023/07/09 09:49:03;;;;;;;6.18;3.78;;;;;;;29.32;64.14;97750.97;5072022;28;20438;-73
2023/07/09 09:51:29;;;;;;;8.35;3.47;;;;;;;29.47;68.49;97753.56;5071672;28;20762;-73
2023/07/09 09:53:58;;;;;;;4.90;3.10;;;;;;;29.55;71.46;97749.81;5071942;28;20407;-74
2023/07/09 09:56:28;;;;;;;5.60;3.20;;;;;;;29.66;73.92;97749.19;5072032;28;20399;-73
2023/07/09 09:58:56;;;;;;;8.00;3.53;;;;;;;29.71;58.10;97749.66;5071928;28;20395;-74
2023/07/09 10:01:27;;;;;;;6.85;3.58;;;;;;;29.50;51.39;97730.25;5071773;28;20901;-74
2023/07/09 10:03:57;;;;;;;8.05;3.38;;;;;;;29.73;51.82;97732.94;5069421;28;20400;-74
2023/07/09 10:06:34;;;;;;;6.47;3.15;;;;;;;29.87;50.64;97725.72;5072155;28;20788;-75
2023/07/09 10:09:10;;;;;;;4.83;3.33;;;;;;;29.72;50.90;97734.06;5070733;28;20388;-73
2023/07/09 10:11:48;;;;;;;7.20;3.70;;;;;;;29.96;49.55;97726.28;5072218;28;20415;-73
2023/07/09 10:14:28;;;;;;;7.00;3.60;;;;;;;29.97;54.12;97732.53;5067961;28;20426;-73
2023/07/09 10:16:59;;;;;;;7.10;3.70;;;;;;;29.95;53.94;97730.16;5065648;28;20397;-73
2023/07/09 10:19:37;;;;;;;8.10;3.77;;;;;;;29.97;51.60;97732.53;5065055;28;20496;-72
2023/07/09 10:22:07;;;;;;;5.07;3.20;;;;;;;30.17;52.94;97717.56;5064742;28;20442;-73
2023/07/09 10:24:45;;;;;;;7.47;3.63;;;;;;;30.19;52.46;97717.19;5064977;28;20391;-73
2023/07/09 10:27:16;;;;;;;4.35;2.83;;;;;;;30.25;55.17;97715.69;5064272;28;20400;-73
2023/07/09 10:30:13;;;;;;;6.63;3.80;;;;;;;30.28;51.41;97713.03;5064620;28;20415;-73
2023/07/09 10:32:57;;;;;;;5.65;3.20;;;;;;;30.40;53.73;97715.50;5062885;28;20461;-73
2023/07/09 10:35:32;;;;;;;3.58;2.92;;;;;;;30.58;56.65;97710.28;5065231;28;20452;-73
2023/07/09 10:38:13;;;;;;;4.43;2.95;;;;;;;30.74;54.31;97704.59;5065624;28;20391;-73
2023/07/09 10:40:45;;;;;;;6.32;3.08;;;;;;;30.76;51.30;97704.97;5064195;28;20400;-74
2023/07/09 10:43:18;;;;;;;8.25;3.78;;;;;;;30.80;50.33;97711.28;5063274;28;20454;-73
2023/07/09 10:45:49;;;;;;;5.13;3.50;;;;;;;31.00;53.43;97723.56;5064826;28;21035;-74
2023/07/09 10:48:19;;;;;;;6.72;3.08;;;;;;;31.14;51.08;97704.56;5063885;28;20403;-74
2023/07/09 10:50:50;;;;;;;5.88;3.53;;;;;;;31.19;48.66;97700.72;5046658;28;20401;-73
2023/07/09 10:53:29;;;;;;;4.65;3.00;;;;;;;31.27;51.17;97696.09;5062768;28;20425;-74
2023/07/09 10:55:59;;;;;;;5.77;3.30;;;;;;;31.39;52.66;97704.00;5063800;28;20452;-74
2023/07/09 10:58:34;;;;;;;5.20;2.63;;;;;;;31.52;54.20;97688.84;5065172;28;20411;-74
2023/07/09 11:01:01;;;;;;;4.03;2.67;;;;;;;31.67;55.26;97692.47;5061240;28;20455;-74
2023/07/09 11:03:40;;;;;;;3.37;2.50;;;;;;;31.84;56.59;97700.00;5062112;28;20396;-74
2023/07/09 11:06:16;;;;;;;3.40;2.28;;;;;;;32.00;57.91;97675.84;5063823;28;20505;-74
2023/07/09 11:08:47;;;;;;;5.32;3.10;;;;;;;32.01;53.88;97679.38;5063030;28;20892;-73
2023/07/09 11:11:24;;;;;;;5.35;2.63;;;;;;;32.12;55.61;97678.22;5064364;28;20405;-72
2023/07/09 11:13:57;;;;;;;8.52;3.42;;;;;;;32.19;54.29;97682.97;5068035;28;20378;-72
2023/07/09 11:16:29;;;;;;;5.20;2.90;;;;;;;32.24;51.78;97682.63;5066597;28;20397;-72
2023/07/09 11:18:59;;;;;;;9.43;3.77;;;;;;;32.29;46.22;97683.03;5065494;28;20810;-72
2023/07/09 11:21:25;;;;;;;6.50;3.53;;;;;;;32.18;44.29;97689.63;5065855;28;20427;-72
2023/07/09 11:23:55;;;;;;;4.95;3.10;;;;;;;32.29;48.30;97674.81;5069855;28;20869;-73
2023/07/09 11:26:26;;;;;;;5.15;3.08;;;;;;;32.40;50.20;97680.31;5068989;28;20430;-72
2023/07/09 11:28:54;;;;;;;4.72;2.67;;;;;;;32.53;51.09;97681.53;5065310;28;20768;-73
2023/07/09 11:31:24;;;;;;;4.80;2.70;;;;;;;32.70;53.05;97681.97;5065065;28;21136;-73